sensor_id;sensor_type;location;lat;lon;timestamp;P1;durP1;ratioP1;P2;durP2;ratioP2
38132;SDS011;23948;43.252;26.572;2022-08-20T00:00:41;14.13;;;9.07;;
38132;SDS011;23948;43.252;26.572;2022-08-20T00:03:13;14.15;;;8.25;;
38132;SDS011;23948;43.252;26.572;2022-08-20T00:05:40;13.85;;;8.75;;
38132;SDS011;23948;43.252;26.572;2022-08-20T00:08:06;11.50;;;8.38;;
38132;SDS011;23948;43.252;26.572;2022-08-20T00:10:33;10.65;;;8.65;;
38132;SDS011;23948;43.252;26.572;2022-08-20T00:12:59;12.57;;;8.23;;
38132;SDS011;23948;43.252;26.572;2022-08-20T00:15:27;14.98;;;8.88;;
38132;SDS011;23948;43.252;26.572;2022-08-20T00:17:53;14.95;;;8.82;;
38132;SDS011;23948;43.252;26.572;2022-08-20T00:20:19;12.60;;;9.00;;
38132;SDS011;23948;43.252;26.572;2022-08-20T00:22:45;10.65;;;8.50;;
38132;SDS011;23948;43.252;26.572;2022-08-20T00:25:11;12.18;;;8.35;;
38132;SDS011;23948;43.252;26.572;2022-08-20T00:27:36;17.65;;;8.88;;
38132;SDS011;23948;43.252;26.572;2022-08-20T00:30:03;15.70;;;9.15;;
38132;SDS011;23948;43.252;26.572;2022-08-20T00:32:29;13.55;;;9.15;;
38132;SDS011;23948;43.252;26.572;2022-08-20T00:34:55;13.27;;;8.10;;
38132;SDS011;23948;43.252;26.572;2022-08-20T00:37:20;12.27;;;8.52;;
38132;SDS011;23948;43.252;26.572;2022-08-20T00:39:46;12.45;;;8.55;;
38132;SDS011;23948;43.252;26.572;2022-08-20T00:42:11;12.63;;;9.10;;
38132;SDS011;23948;43.252;26.572;2022-08-20T00:44:36;16.48;;;9.00;;
38132;SDS011;23948;43.252;26.572;2022-08-20T00:47:07;12.80;;;8.98;;
38132;SDS011;23948;43.252;26.572;2022-08-20T00:49:33;14.63;;;9.32;;
38132;SDS011;23948;43.252;26.572;2022-08-20T00:54:43;17.33;;;9.80;;
38132;SDS011;23948;43.252;26.572;2022-08-20T00:57:53;12.98;;;8.13;;
38132;SDS011;23948;43.252;26.572;2022-08-20T00:59:58;10.82;;;9.18;;
38132;SDS011;23948;43.252;26.572;2022-08-20T01:02:26;11.15;;;8.93;;
38132;SDS011;23948;43.252;26.572;2022-08-20T01:04:53;14.63;;;9.27;;
38132;SDS011;23948;43.252;26.572;2022-08-20T01:07:23;14.73;;;9.55;;
38132;SDS011;23948;43.252;26.572;2022-08-20T01:09:56;12.50;;;8.95;;
38132;SDS011;23948;43.252;26.572;2022-08-20T01:12:22;15.48;;;9.45;;
38132;SDS011;23948;43.252;26.572;2022-08-20T01:14:48;16.90;;;9.80;;
38132;SDS011;23948;43.252;26.572;2022-08-20T01:17:14;19.92;;;11.05;;
38132;SDS011;23948;43.252;26.572;2022-08-20T01:19:54;15.52;;;9.85;;
38132;SDS011;23948;43.252;26.572;2022-08-20T01:22:37;16.75;;;9.70;;
38132;SDS011;23948;43.252;26.572;2022-08-20T01:25:26;11.80;;;9.20;;
38132;SDS011;23948;43.252;26.572;2022-08-20T01:27:52;12.07;;;8.80;;
38132;SDS011;23948;43.252;26.572;2022-08-20T01:30:18;14.85;;;9.30;;
38132;SDS011;23948;43.252;26.572;2022-08-20T01:32:44;13.88;;;9.35;;
38132;SDS011;23948;43.252;26.572;2022-08-20T01:35:09;12.32;;;9.07;;
38132;SDS011;23948;43.252;26.572;2022-08-20T01:37:34;16.27;;;9.95;;
38132;SDS011;23948;43.252;26.572;2022-08-20T01:40:00;13.73;;;9.38;;
38132;SDS011;23948;43.252;26.572;2022-08-20T01:42:30;22.63;;;10.48;;
38132;SDS011;23948;43.252;26.572;2022-08-20T01:44:59;15.10;;;9.90;;
38132;SDS011;23948;43.252;26.572;2022-08-20T01:47:26;14.02;;;9.25;;
38132;SDS011;23948;43.252;26.572;2022-08-20T01:49:54;18.13;;;9.73;;
38132;SDS011;23948;43.252;26.572;2022-08-20T01:52:36;13.85;;;9.82;;
38132;SDS011;23948;43.252;26.572;2022-08-20T01:55:05;16.00;;;9.88;;
38132;SDS011;23948;43.252;26.572;2022-08-20T01:57:31;13.48;;;9.48;;
38132;SDS011;23948;43.252;26.572;2022-08-20T01:59:59;12.80;;;9.18;;
38132;SDS011;23948;43.252;26.572;2022-08-20T02:02:24;13.85;;;9.25;;
38132;SDS011;23948;43.252;26.572;2022-08-20T02:04:50;15.77;;;10.25;;
38132;SDS011;23948;43.252;26.572;2022-08-20T02:07:17;11.50;;;9.10;;
38132;SDS011;23948;43.252;26.572;2022-08-20T02:09:43;17.08;;;11.02;;
38132;SDS011;23948;43.252;26.572;2022-08-20T02:12:09;14.40;;;10.23;;
38132;SDS011;23948;43.252;26.572;2022-08-20T02:14:34;13.88;;;10.00;;
38132;SDS011;23948;43.252;26.572;2022-08-20T02:17:03;14.20;;;10.52;;
38132;SDS011;23948;43.252;26.572;2022-08-20T02:19:32;17.23;;;10.88;;
38132;SDS011;23948;43.252;26.572;2022-08-20T02:21:59;13.30;;;10.38;;
38132;SDS011;23948;43.252;26.572;2022-08-20T02:24:26;12.95;;;9.48;;
38132;SDS011;23948;43.252;26.572;2022-08-20T02:26:51;16.35;;;10.75;;
38132;SDS011;23948;43.252;26.572;2022-08-20T02:29:17;12.95;;;9.85;;
38132;SDS011;23948;43.252;26.572;2022-08-20T02:31:43;13.07;;;10.43;;
38132;SDS011;23948;43.252;26.572;2022-08-20T02:34:09;12.02;;;9.57;;
38132;SDS011;23948;43.252;26.572;2022-08-20T02:36:35;14.07;;;10.02;;
38132;SDS011;23948;43.252;26.572;2022-08-20T02:39:03;14.70;;;10.45;;
38132;SDS011;23948;43.252;26.572;2022-08-20T02:41:28;14.77;;;11.25;;
38132;SDS011;23948;43.252;26.572;2022-08-20T02:43:53;16.63;;;10.70;;
38132;SDS011;23948;43.252;26.572;2022-08-20T02:46:18;14.95;;;9.85;;
38132;SDS011;23948;43.252;26.572;2022-08-20T02:48:44;15.00;;;10.55;;
38132;SDS011;23948;43.252;26.572;2022-08-20T02:51:09;13.68;;;10.52;;
38132;SDS011;23948;43.252;26.572;2022-08-20T02:53:36;12.85;;;11.00;;
38132;SDS011;23948;43.252;26.572;2022-08-20T02:56:02;14.70;;;11.27;;
38132;SDS011;23948;43.252;26.572;2022-08-20T02:58:28;14.07;;;11.18;;
38132;SDS011;23948;43.252;26.572;2022-08-20T03:00:53;14.60;;;10.93;;
38132;SDS011;23948;43.252;26.572;2022-08-20T03:03:20;15.48;;;10.77;;
38132;SDS011;23948;43.252;26.572;2022-08-20T03:05:47;16.92;;;11.45;;
38132;SDS011;23948;43.252;26.572;2022-08-20T03:08:13;14.32;;;11.23;;
38132;SDS011;23948;43.252;26.572;2022-08-20T03:10:39;14.50;;;11.48;;
38132;SDS011;23948;43.252;26.572;2022-08-20T03:13:05;13.07;;;11.40;;
38132;SDS011;23948;43.252;26.572;2022-08-20T03:15:32;15.50;;;12.05;;
38132;SDS011;23948;43.252;26.572;2022-08-20T03:17:57;17.20;;;12.20;;
38132;SDS011;23948;43.252;26.572;2022-08-20T03:20:23;18.70;;;12.35;;
38132;SDS011;23948;43.252;26.572;2022-08-20T03:22:49;23.83;;;12.23;;
38132;SDS011;23948;43.252;26.572;2022-08-20T03:25:14;17.65;;;12.05;;
38132;SDS011;23948;43.252;26.572;2022-08-20T03:27:39;15.50;;;12.13;;
38132;SDS011;23948;43.252;26.572;2022-08-20T03:30:06;14.88;;;11.70;;
38132;SDS011;23948;43.252;26.572;2022-08-20T03:32:32;14.07;;;11.05;;
38132;SDS011;23948;43.252;26.572;2022-08-20T03:34:57;13.63;;;11.27;;
38132;SDS011;23948;43.252;26.572;2022-08-20T03:37:22;15.15;;;11.60;;
38132;SDS011;23948;43.252;26.572;2022-08-20T03:39:48;16.98;;;11.75;;
38132;SDS011;23948;43.252;26.572;2022-08-20T03:42:13;17.42;;;12.00;;
38132;SDS011;23948;43.252;26.572;2022-08-20T03:44:38;15.50;;;11.60;;
38132;SDS011;23948;43.252;26.572;2022-08-20T03:47:04;17.77;;;11.07;;
38132;SDS011;23948;43.252;26.572;2022-08-20T03:49:33;20.27;;;11.25;;
38132;SDS011;23948;43.252;26.572;2022-08-20T03:51:59;19.35;;;11.52;;
38132;SDS011;23948;43.252;26.572;2022-08-20T03:54:27;16.17;;;12.80;;
38132;SDS011;23948;43.252;26.572;2022-08-20T03:56:52;19.52;;;11.95;;
38132;SDS011;23948;43.252;26.572;2022-08-20T03:59:17;20.17;;;11.50;;
38132;SDS011;23948;43.252;26.572;2022-08-20T04:01:43;16.75;;;11.82;;
38132;SDS011;23948;43.252;26.572;2022-08-20T04:04:08;21.00;;;12.70;;
38132;SDS011;23948;43.252;26.572;2022-08-20T04:06:34;18.77;;;12.60;;
38132;SDS011;23948;43.252;26.572;2022-08-20T04:09:00;16.48;;;12.27;;
38132;SDS011;23948;43.252;26.572;2022-08-20T04:11:25;17.13;;;12.43;;
38132;SDS011;23948;43.252;26.572;2022-08-20T04:13:51;15.98;;;12.07;;
38132;SDS011;23948;43.252;26.572;2022-08-20T04:16:16;13.05;;;11.32;;
38132;SDS011;23948;43.252;26.572;2022-08-20T04:18:41;15.45;;;11.07;;
38132;SDS011;23948;43.252;26.572;2022-08-20T04:21:07;16.75;;;11.48;;
38132;SDS011;23948;43.252;26.572;2022-08-20T04:23:32;17.67;;;12.10;;
38132;SDS011;23948;43.252;26.572;2022-08-20T04:25:58;20.75;;;11.93;;
38132;SDS011;23948;43.252;26.572;2022-08-20T04:28:23;13.52;;;11.35;;
38132;SDS011;23948;43.252;26.572;2022-08-20T04:30:53;15.35;;;11.68;;
38132;SDS011;23948;43.252;26.572;2022-08-20T04:33:18;18.30;;;12.02;;
38132;SDS011;23948;43.252;26.572;2022-08-20T04:35:44;16.90;;;11.50;;
38132;SDS011;23948;43.252;26.572;2022-08-20T04:38:11;24.85;;;12.98;;
38132;SDS011;23948;43.252;26.572;2022-08-20T04:40:37;22.42;;;11.63;;
38132;SDS011;23948;43.252;26.572;2022-08-20T04:43:21;18.80;;;12.02;;
38132;SDS011;23948;43.252;26.572;2022-08-20T04:45:47;17.90;;;12.10;;
38132;SDS011;23948;43.252;26.572;2022-08-20T04:48:13;21.80;;;11.93;;
38132;SDS011;23948;43.252;26.572;2022-08-20T04:50:38;21.63;;;12.20;;
38132;SDS011;23948;43.252;26.572;2022-08-20T04:53:05;18.92;;;12.85;;
38132;SDS011;23948;43.252;26.572;2022-08-20T04:55:32;18.77;;;11.93;;
38132;SDS011;23948;43.252;26.572;2022-08-20T04:58:01;19.88;;;13.57;;
38132;SDS011;23948;43.252;26.572;2022-08-20T05:00:27;20.08;;;13.10;;
38132;SDS011;23948;43.252;26.572;2022-08-20T05:02:52;16.65;;;13.25;;
38132;SDS011;23948;43.252;26.572;2022-08-20T05:05:18;20.48;;;13.13;;
38132;SDS011;23948;43.252;26.572;2022-08-20T05:07:43;19.52;;;13.25;;
38132;SDS011;23948;43.252;26.572;2022-08-20T05:10:13;19.23;;;12.50;;
38132;SDS011;23948;43.252;26.572;2022-08-20T05:12:39;18.35;;;12.18;;
38132;SDS011;23948;43.252;26.572;2022-08-20T05:15:06;17.13;;;13.05;;
38132;SDS011;23948;43.252;26.572;2022-08-20T05:17:31;21.52;;;14.30;;
38132;SDS011;23948;43.252;26.572;2022-08-20T05:19:56;20.90;;;14.18;;
38132;SDS011;23948;43.252;26.572;2022-08-20T05:22:23;28.13;;;14.07;;
38132;SDS011;23948;43.252;26.572;2022-08-20T05:24:49;17.45;;;13.63;;
38132;SDS011;23948;43.252;26.572;2022-08-20T05:27:17;23.90;;;13.55;;
38132;SDS011;23948;43.252;26.572;2022-08-20T05:29:42;23.42;;;11.93;;
38132;SDS011;23948;43.252;26.572;2022-08-20T05:32:08;20.40;;;11.48;;
38132;SDS011;23948;43.252;26.572;2022-08-20T05:34:33;17.50;;;11.27;;
38132;SDS011;23948;43.252;26.572;2022-08-20T05:36:58;19.45;;;12.20;;
38132;SDS011;23948;43.252;26.572;2022-08-20T05:39:27;19.03;;;11.20;;
38132;SDS011;23948;43.252;26.572;2022-08-20T05:41:53;18.27;;;11.85;;
38132;SDS011;23948;43.252;26.572;2022-08-20T05:44:18;20.92;;;11.70;;
38132;SDS011;23948;43.252;26.572;2022-08-20T05:46:44;15.88;;;11.18;;
38132;SDS011;23948;43.252;26.572;2022-08-20T05:49:10;14.63;;;11.95;;
38132;SDS011;23948;43.252;26.572;2022-08-20T05:51:36;17.60;;;11.45;;
38132;SDS011;23948;43.252;26.572;2022-08-20T05:54:02;16.10;;;11.80;;
38132;SDS011;23948;43.252;26.572;2022-08-20T05:56:28;19.25;;;12.00;;
38132;SDS011;23948;43.252;26.572;2022-08-20T05:58:55;17.70;;;11.60;;
38132;SDS011;23948;43.252;26.572;2022-08-20T06:01:21;14.55;;;11.02;;
38132;SDS011;23948;43.252;26.572;2022-08-20T06:03:46;17.08;;;11.52;;
38132;SDS011;23948;43.252;26.572;2022-08-20T06:06:30;16.83;;;11.10;;
38132;SDS011;23948;43.252;26.572;2022-08-20T06:08:56;17.33;;;11.48;;
38132;SDS011;23948;43.252;26.572;2022-08-20T06:11:21;14.57;;;10.82;;
38132;SDS011;23948;43.252;26.572;2022-08-20T06:13:47;16.67;;;10.93;;
38132;SDS011;23948;43.252;26.572;2022-08-20T06:16:12;18.20;;;11.70;;
38132;SDS011;23948;43.252;26.572;2022-08-20T06:18:37;14.73;;;11.00;;
38132;SDS011;23948;43.252;26.572;2022-08-20T06:21:03;20.08;;;10.55;;
38132;SDS011;23948;43.252;26.572;2022-08-20T06:23:28;14.68;;;10.77;;
38132;SDS011;23948;43.252;26.572;2022-08-20T06:25:53;18.65;;;10.25;;
38132;SDS011;23948;43.252;26.572;2022-08-20T06:28:19;17.17;;;10.13;;
38132;SDS011;23948;43.252;26.572;2022-08-20T06:30:44;12.95;;;9.35;;
38132;SDS011;23948;43.252;26.572;2022-08-20T06:33:09;17.17;;;10.18;;
38132;SDS011;23948;43.252;26.572;2022-08-20T06:35:35;15.38;;;9.73;;
38132;SDS011;23948;43.252;26.572;2022-08-20T06:38:02;16.67;;;9.75;;
38132;SDS011;23948;43.252;26.572;2022-08-20T06:40:29;15.35;;;9.52;;
38132;SDS011;23948;43.252;26.572;2022-08-20T06:42:55;16.50;;;9.57;;
38132;SDS011;23948;43.252;26.572;2022-08-20T06:45:24;20.40;;;8.80;;
38132;SDS011;23948;43.252;26.572;2022-08-20T06:47:50;12.60;;;8.38;;
38132;SDS011;23948;43.252;26.572;2022-08-20T06:50:17;15.15;;;8.63;;
38132;SDS011;23948;43.252;26.572;2022-08-20T06:52:42;15.93;;;8.18;;
38132;SDS011;23948;43.252;26.572;2022-08-20T06:55:09;14.27;;;8.48;;
38132;SDS011;23948;43.252;26.572;2022-08-20T06:57:35;13.15;;;6.82;;
38132;SDS011;23948;43.252;26.572;2022-08-20T07:00:01;10.00;;;7.00;;
38132;SDS011;23948;43.252;26.572;2022-08-20T07:02:26;14.10;;;7.90;;
38132;SDS011;23948;43.252;26.572;2022-08-20T07:04:51;13.37;;;7.03;;
38132;SDS011;23948;43.252;26.572;2022-08-20T07:07:18;11.95;;;6.70;;
38132;SDS011;23948;43.252;26.572;2022-08-20T07:09:44;10.38;;;5.72;;
38132;SDS011;23948;43.252;26.572;2022-08-20T07:12:11;10.18;;;6.00;;
38132;SDS011;23948;43.252;26.572;2022-08-20T07:14:36;12.80;;;5.40;;
38132;SDS011;23948;43.252;26.572;2022-08-20T07:17:02;13.23;;;4.93;;
38132;SDS011;23948;43.252;26.572;2022-08-20T07:19:27;9.82;;;4.43;;
38132;SDS011;23948;43.252;26.572;2022-08-20T07:21:53;13.65;;;4.63;;
38132;SDS011;23948;43.252;26.572;2022-08-20T07:24:18;9.23;;;4.20;;
38132;SDS011;23948;43.252;26.572;2022-08-20T07:26:43;8.13;;;3.83;;
38132;SDS011;23948;43.252;26.572;2022-08-20T07:29:09;11.80;;;4.22;;
38132;SDS011;23948;43.252;26.572;2022-08-20T07:31:34;7.70;;;4.03;;
38132;SDS011;23948;43.252;26.572;2022-08-20T07:34:18;14.77;;;4.38;;
38132;SDS011;23948;43.252;26.572;2022-08-20T07:36:43;10.23;;;4.20;;
38132;SDS011;23948;43.252;26.572;2022-08-20T07:39:08;8.75;;;3.92;;
38132;SDS011;23948;43.252;26.572;2022-08-20T07:41:34;11.77;;;4.43;;
38132;SDS011;23948;43.252;26.572;2022-08-20T07:43:59;12.90;;;4.20;;
38132;SDS011;23948;43.252;26.572;2022-08-20T07:46:24;11.30;;;3.47;;
38132;SDS011;23948;43.252;26.572;2022-08-20T07:48:50;11.37;;;3.97;;
38132;SDS011;23948;43.252;26.572;2022-08-20T07:51:17;7.30;;;3.65;;
38132;SDS011;23948;43.252;26.572;2022-08-20T07:53:43;10.53;;;3.73;;
38132;SDS011;23948;43.252;26.572;2022-08-20T07:56:10;5.63;;;3.00;;
38132;SDS011;23948;43.252;26.572;2022-08-20T07:58:37;12.73;;;4.40;;
38132;SDS011;23948;43.252;26.572;2022-08-20T08:01:04;5.80;;;3.33;;
38132;SDS011;23948;43.252;26.572;2022-08-20T08:03:30;9.68;;;4.07;;
38132;SDS011;23948;43.252;26.572;2022-08-20T08:05:56;9.23;;;3.65;;
38132;SDS011;23948;43.252;26.572;2022-08-20T08:08:22;11.00;;;3.88;;
38132;SDS011;23948;43.252;26.572;2022-08-20T08:10:50;9.68;;;3.47;;
38132;SDS011;23948;43.252;26.572;2022-08-20T08:13:16;8.65;;;3.40;;
38132;SDS011;23948;43.252;26.572;2022-08-20T08:15:46;8.20;;;3.05;;
38132;SDS011;23948;43.252;26.572;2022-08-20T08:18:16;9.65;;;3.50;;
38132;SDS011;23948;43.252;26.572;2022-08-20T08:20:42;8.38;;;3.55;;
38132;SDS011;23948;43.252;26.572;2022-08-20T08:23:09;12.27;;;3.50;;
38132;SDS011;23948;43.252;26.572;2022-08-20T08:25:38;9.80;;;3.60;;
38132;SDS011;23948;43.252;26.572;2022-08-20T08:28:03;8.63;;;3.70;;
38132;SDS011;23948;43.252;26.572;2022-08-20T08:30:29;11.05;;;3.20;;
38132;SDS011;23948;43.252;26.572;2022-08-20T08:32:55;12.18;;;3.70;;
38132;SDS011;23948;43.252;26.572;2022-08-20T08:35:39;8.88;;;3.30;;
38132;SDS011;23948;43.252;26.572;2022-08-20T08:38:10;10.88;;;3.22;;
38132;SDS011;23948;43.252;26.572;2022-08-20T08:40:37;10.93;;;3.28;;
38132;SDS011;23948;43.252;26.572;2022-08-20T08:43:02;7.63;;;3.00;;
38132;SDS011;23948;43.252;26.572;2022-08-20T08:45:31;6.88;;;3.13;;
38132;SDS011;23948;43.252;26.572;2022-08-20T08:47:58;8.05;;;3.40;;
38132;SDS011;23948;43.252;26.572;2022-08-20T08:50:25;10.15;;;3.30;;
38132;SDS011;23948;43.252;26.572;2022-08-20T08:52:51;6.97;;;3.10;;
38132;SDS011;23948;43.252;26.572;2022-08-20T08:55:18;8.35;;;3.42;;
38132;SDS011;23948;43.252;26.572;2022-08-20T08:57:45;10.30;;;3.60;;
38132;SDS011;23948;43.252;26.572;2022-08-20T09:00:12;8.50;;;3.10;;
38132;SDS011;23948;43.252;26.572;2022-08-20T09:02:39;8.93;;;3.08;;
38132;SDS011;23948;43.252;26.572;2022-08-20T09:05:13;8.05;;;3.40;;
38132;SDS011;23948;43.252;26.572;2022-08-20T09:07:40;8.38;;;3.35;;
38132;SDS011;23948;43.252;26.572;2022-08-20T09:10:09;6.63;;;3.30;;
38132;SDS011;23948;43.252;26.572;2022-08-20T09:12:35;6.00;;;3.00;;
38132;SDS011;23948;43.252;26.572;2022-08-20T09:15:00;9.40;;;4.13;;
38132;SDS011;23948;43.252;26.572;2022-08-20T09:17:26;7.93;;;3.33;;
38132;SDS011;23948;43.252;26.572;2022-08-20T09:19:51;8.02;;;3.22;;
38132;SDS011;23948;43.252;26.572;2022-08-20T09:22:18;7.25;;;3.40;;
38132;SDS011;23948;43.252;26.572;2022-08-20T09:24:44;10.25;;;3.40;;
38132;SDS011;23948;43.252;26.572;2022-08-20T09:27:10;8.32;;;3.30;;
38132;SDS011;23948;43.252;26.572;2022-08-20T09:29:35;6.38;;;3.25;;
38132;SDS011;23948;43.252;26.572;2022-08-20T09:34:51;8.65;;;3.30;;
38132;SDS011;23948;43.252;26.572;2022-08-20T09:37:20;11.30;;;3.83;;
38132;SDS011;23948;43.252;26.572;2022-08-20T09:39:46;9.10;;;3.70;;
38132;SDS011;23948;43.252;26.572;2022-08-20T09:42:13;9.73;;;3.88;;
38132;SDS011;23948;43.252;26.572;2022-08-20T09:44:39;10.95;;;3.72;;
38132;SDS011;23948;43.252;26.572;2022-08-20T09:47:04;10.13;;;3.50;;
38132;SDS011;23948;43.252;26.572;2022-08-20T09:49:29;12.15;;;4.13;;
38132;SDS011;23948;43.252;26.572;2022-08-20T09:51:55;10.63;;;4.25;;
38132;SDS011;23948;43.252;26.572;2022-08-20T09:54:20;8.90;;;3.80;;
38132;SDS011;23948;43.252;26.572;2022-08-20T09:56:46;10.65;;;4.07;;
38132;SDS011;23948;43.252;26.572;2022-08-20T09:59:11;12.98;;;4.28;;
38132;SDS011;23948;43.252;26.572;2022-08-20T10:01:38;8.48;;;3.60;;
38132;SDS011;23948;43.252;26.572;2022-08-20T10:04:04;8.80;;;3.75;;
38132;SDS011;23948;43.252;26.572;2022-08-20T10:06:29;10.80;;;3.73;;
38132;SDS011;23948;43.252;26.572;2022-08-20T10:08:54;8.82;;;4.30;;
38132;SDS011;23948;43.252;26.572;2022-08-20T10:11:19;7.15;;;3.58;;
38132;SDS011;23948;43.252;26.572;2022-08-20T10:13:45;8.83;;;3.60;;
38132;SDS011;23948;43.252;26.572;2022-08-20T10:16:10;9.48;;;4.00;;
38132;SDS011;23948;43.252;26.572;2022-08-20T10:18:35;8.77;;;3.67;;
38132;SDS011;23948;43.252;26.572;2022-08-20T10:21:01;10.20;;;3.70;;
38132;SDS011;23948;43.252;26.572;2022-08-20T10:23:27;6.38;;;3.50;;
38132;SDS011;23948;43.252;26.572;2022-08-20T10:25:52;11.10;;;3.75;;
38132;SDS011;23948;43.252;26.572;2022-08-20T10:28:17;7.28;;;3.75;;
38132;SDS011;23948;43.252;26.572;2022-08-20T10:30:43;10.98;;;3.80;;
38132;SDS011;23948;43.252;26.572;2022-08-20T10:33:09;8.65;;;3.88;;
38132;SDS011;23948;43.252;26.572;2022-08-20T10:35:34;8.45;;;3.28;;
38132;SDS011;23948;43.252;26.572;2022-08-20T10:37:59;11.82;;;3.85;;
38132;SDS011;23948;43.252;26.572;2022-08-20T10:40:25;9.48;;;3.45;;
38132;SDS011;23948;43.252;26.572;2022-08-20T10:42:50;9.23;;;3.40;;
38132;SDS011;23948;43.252;26.572;2022-08-20T10:45:15;9.95;;;3.55;;
38132;SDS011;23948;43.252;26.572;2022-08-20T10:47:41;9.27;;;4.00;;
38132;SDS011;23948;43.252;26.572;2022-08-20T10:50:08;9.95;;;3.22;;
38132;SDS011;23948;43.252;26.572;2022-08-20T10:52:34;12.45;;;3.55;;
38132;SDS011;23948;43.252;26.572;2022-08-20T10:55:00;12.13;;;3.78;;
38132;SDS011;23948;43.252;26.572;2022-08-20T10:57:29;9.05;;;3.35;;
38132;SDS011;23948;43.252;26.572;2022-08-20T10:59:55;8.18;;;3.65;;
38132;SDS011;23948;43.252;26.572;2022-08-20T11:02:21;9.88;;;3.63;;
38132;SDS011;23948;43.252;26.572;2022-08-20T11:04:46;11.75;;;3.72;;
38132;SDS011;23948;43.252;26.572;2022-08-20T11:09:41;9.23;;;3.97;;
38132;SDS011;23948;43.252;26.572;2022-08-20T11:12:07;7.13;;;3.47;;
38132;SDS011;23948;43.252;26.572;2022-08-20T11:14:32;12.75;;;3.70;;
38132;SDS011;23948;43.252;26.572;2022-08-20T11:16:58;9.82;;;3.30;;
38132;SDS011;23948;43.252;26.572;2022-08-20T11:19:23;7.47;;;3.25;;
38132;SDS011;23948;43.252;26.572;2022-08-20T11:21:49;8.95;;;3.83;;
38132;SDS011;23948;43.252;26.572;2022-08-20T11:24:14;9.37;;;3.80;;
38132;SDS011;23948;43.252;26.572;2022-08-20T11:26:39;8.23;;;3.87;;
38132;SDS011;23948;43.252;26.572;2022-08-20T11:29:05;12.27;;;3.53;;
38132;SDS011;23948;43.252;26.572;2022-08-20T11:31:30;10.20;;;3.22;;
38132;SDS011;23948;43.252;26.572;2022-08-20T11:33:55;6.63;;;3.05;;
38132;SDS011;23948;43.252;26.572;2022-08-20T11:36:21;9.00;;;3.20;;
38132;SDS011;23948;43.252;26.572;2022-08-20T11:38:50;7.97;;;3.13;;
38132;SDS011;23948;43.252;26.572;2022-08-20T11:41:15;6.38;;;3.30;;
38132;SDS011;23948;43.252;26.572;2022-08-20T11:43:41;8.75;;;3.50;;
38132;SDS011;23948;43.252;26.572;2022-08-20T11:46:06;9.37;;;3.30;;
38132;SDS011;23948;43.252;26.572;2022-08-20T11:48:31;8.77;;;3.45;;
38132;SDS011;23948;43.252;26.572;2022-08-20T11:50:57;9.55;;;3.90;;
38132;SDS011;23948;43.252;26.572;2022-08-20T11:53:22;8.17;;;3.70;;
38132;SDS011;23948;43.252;26.572;2022-08-20T11:55:47;6.32;;;3.08;;
38132;SDS011;23948;43.252;26.572;2022-08-20T11:58:13;7.32;;;3.30;;
38132;SDS011;23948;43.252;26.572;2022-08-20T12:00:38;6.70;;;3.30;;
38132;SDS011;23948;43.252;26.572;2022-08-20T12:03:04;7.97;;;3.65;;
38132;SDS011;23948;43.252;26.572;2022-08-20T12:05:30;11.52;;;3.47;;
38132;SDS011;23948;43.252;26.572;2022-08-20T12:07:56;6.15;;;3.47;;
38132;SDS011;23948;43.252;26.572;2022-08-20T12:10:21;8.57;;;3.50;;
38132;SDS011;23948;43.252;26.572;2022-08-20T12:12:48;7.20;;;3.40;;
38132;SDS011;23948;43.252;26.572;2022-08-20T12:15:13;7.85;;;3.33;;
38132;SDS011;23948;43.252;26.572;2022-08-20T12:17:39;7.15;;;3.20;;
38132;SDS011;23948;43.252;26.572;2022-08-20T12:20:06;8.37;;;3.20;;
38132;SDS011;23948;43.252;26.572;2022-08-20T12:22:31;7.28;;;3.00;;
38132;SDS011;23948;43.252;26.572;2022-08-20T12:24:57;7.38;;;3.10;;
38132;SDS011;23948;43.252;26.572;2022-08-20T12:27:23;7.85;;;3.53;;
38132;SDS011;23948;43.252;26.572;2022-08-20T12:29:50;7.35;;;3.20;;
38132;SDS011;23948;43.252;26.572;2022-08-20T12:32:17;9.13;;;2.97;;
38132;SDS011;23948;43.252;26.572;2022-08-20T12:34:43;6.90;;;3.50;;
38132;SDS011;23948;43.252;26.572;2022-08-20T12:37:09;7.35;;;3.40;;
38132;SDS011;23948;43.252;26.572;2022-08-20T12:39:38;9.00;;;3.55;;
38132;SDS011;23948;43.252;26.572;2022-08-20T12:42:04;7.80;;;2.88;;
38132;SDS011;23948;43.252;26.572;2022-08-20T12:44:30;6.38;;;3.00;;
38132;SDS011;23948;43.252;26.572;2022-08-20T12:49:33;7.45;;;3.30;;
38132;SDS011;23948;43.252;26.572;2022-08-20T12:51:58;8.48;;;3.20;;
38132;SDS011;23948;43.252;26.572;2022-08-20T12:54:24;9.35;;;3.25;;
38132;SDS011;23948;43.252;26.572;2022-08-20T12:56:49;7.63;;;3.65;;
38132;SDS011;23948;43.252;26.572;2022-08-20T12:59:16;7.93;;;3.08;;
38132;SDS011;23948;43.252;26.572;2022-08-20T13:01:41;10.93;;;3.53;;
38132;SDS011;23948;43.252;26.572;2022-08-20T13:04:06;8.25;;;3.42;;
38132;SDS011;23948;43.252;26.572;2022-08-20T13:06:32;7.20;;;3.03;;
38132;SDS011;23948;43.252;26.572;2022-08-20T13:08:57;8.93;;;3.57;;
38132;SDS011;23948;43.252;26.572;2022-08-20T13:11:22;6.15;;;3.20;;
38132;SDS011;23948;43.252;26.572;2022-08-20T13:13:48;8.23;;;3.60;;
38132;SDS011;23948;43.252;26.572;2022-08-20T13:16:13;6.75;;;3.22;;
38132;SDS011;23948;43.252;26.572;2022-08-20T13:18:38;7.25;;;3.70;;
38132;SDS011;23948;43.252;26.572;2022-08-20T13:21:04;6.95;;;3.17;;
38132;SDS011;23948;43.252;26.572;2022-08-20T13:23:29;7.95;;;3.25;;
38132;SDS011;23948;43.252;26.572;2022-08-20T13:25:54;8.23;;;3.43;;
38132;SDS011;23948;43.252;26.572;2022-08-20T13:28:20;6.13;;;3.20;;
38132;SDS011;23948;43.252;26.572;2022-08-20T13:30:45;8.27;;;3.23;;
38132;SDS011;23948;43.252;26.572;2022-08-20T13:33:10;5.28;;;2.97;;
38132;SDS011;23948;43.252;26.572;2022-08-20T13:35:36;7.93;;;3.15;;
38132;SDS011;23948;43.252;26.572;2022-08-20T13:38:01;7.35;;;3.10;;
38132;SDS011;23948;43.252;26.572;2022-08-20T13:40:26;9.45;;;3.17;;
38132;SDS011;23948;43.252;26.572;2022-08-20T13:42:52;9.27;;;3.45;;
38132;SDS011;23948;43.252;26.572;2022-08-20T13:45:18;5.93;;;3.20;;
38132;SDS011;23948;43.252;26.572;2022-08-20T13:47:43;6.68;;;3.40;;
38132;SDS011;23948;43.252;26.572;2022-08-20T13:50:13;6.25;;;3.33;;
38132;SDS011;23948;43.252;26.572;2022-08-20T13:52:39;5.95;;;3.20;;
38132;SDS011;23948;43.252;26.572;2022-08-20T13:55:05;8.45;;;3.33;;
38132;SDS011;23948;43.252;26.572;2022-08-20T13:57:31;5.63;;;2.83;;
38132;SDS011;23948;43.252;26.572;2022-08-20T13:59:56;7.18;;;3.40;;
38132;SDS011;23948;43.252;26.572;2022-08-20T14:02:22;11.82;;;3.45;;
38132;SDS011;23948;43.252;26.572;2022-08-20T14:04:48;10.15;;;3.50;;
38132;SDS011;23948;43.252;26.572;2022-08-20T14:09:40;7.83;;;3.63;;
38132;SDS011;23948;43.252;26.572;2022-08-20T14:12:06;6.60;;;3.10;;
38132;SDS011;23948;43.252;26.572;2022-08-20T14:14:31;9.10;;;3.47;;
38132;SDS011;23948;43.252;26.572;2022-08-20T14:16:57;6.25;;;3.30;;
38132;SDS011;23948;43.252;26.572;2022-08-20T14:19:22;10.98;;;3.40;;
38132;SDS011;23948;43.252;26.572;2022-08-20T14:21:47;7.28;;;3.30;;
38132;SDS011;23948;43.252;26.572;2022-08-20T14:24:13;7.38;;;3.10;;
38132;SDS011;23948;43.252;26.572;2022-08-20T14:26:38;8.00;;;3.10;;
38132;SDS011;23948;43.252;26.572;2022-08-20T14:29:04;5.50;;;3.20;;
38132;SDS011;23948;43.252;26.572;2022-08-20T14:31:29;7.72;;;3.38;;